• Join FlightAware (Why Join?)
  • Login
  • US Flag 
08:05AM EDT


 

Airport Tracker/Info


-or-


 

Live Flight TrackerFlight Track Log ✈ N509QS ✈ 15-Jul-2013 ✈ KPHL - KDFW

Flight Track Log - Related Links

Times and Time Zones

All times are in EDT time to prevent confusion due to time zone crossing. See the N509QS flight status page for this flight to view local times or setup timezone preferences in your user account.

Time Position Orientation Groundspeed Altitude Reporting Facility
EDT Latitude Longitude Course Direction KTS MPH feet Rate Location/Type
08:38AM 39.8667 -75.2833 247° West 180 207 1,000  Level Philadelphia TRACON
08:39AM 39.8500 -75.3333 247° West 211 243 3,900 3,360 Climbing Philadelphia TRACON
08:41AM 39.8483 -75.4839 269° West 284 327 9,300 2,280 Climbing New York Center
08:42AM 39.8547 -75.5842 275° West 290 334 10,000 1,320 Climbing New York Center
08:43AM 39.8661 -75.7122 277° West 311 358 12,000 2,280 Climbing New York Center
08:44AM 39.8775 -75.8400 277° West 369 425 14,600 2,640 Climbing New York Center
08:45AM 39.8914 -75.9981 277° West 401 461 17,400 2,340 Climbing New York Center
08:46AM 39.9058 -76.1372 278° West 423 487 19,300 2,280 Climbing New York Center
08:47AM 39.9131 -76.3003 273° West 443 510 22,000 2,460 Climbing New York Center
08:48AM 39.9261 -76.4636 276° West 454 522 24,400 2,220 Climbing New York Center
08:49AM 39.9386 -76.6325 276° West 467 537 26,500 2,040 Climbing New York Center
08:50AM 39.9567 -76.8103 278° West 480 552 28,500 2,160 Climbing New York Center
08:51AM 39.9767 -76.9908 278° West 490 564 30,800 2,340 Climbing New York Center
08:52AM 39.9508 -77.1592 259° West 480 552 33,200 2,040 Climbing New York Center
08:53AM 39.9039 -77.3308 250° West 493 567 34,900 1,980 Climbing New York Center
08:54AM 39.8214 -77.6283 250° West 518 596 38,600 2,100 Climbing Washington Center
08:55AM 39.7747 -77.7972 250° West 513 590 40,500 1,440 Climbing Washington Center
08:56AM 39.7300 -77.9631 251° West 499 574 41,600 1,020 Climbing Washington Center
08:57AM 39.6828 -78.1369 251° West 504 580 42,600 660 Climbing Washington Center
08:58AM 39.6353 -78.3050 250° West 504 580 43,000 180 Climbing Washington Center
08:59AM 39.5875 -78.4781 250° West 504 580 43,000  Level Washington Center
09:00AM 39.5394 -78.6539 251° West 504 580 43,000  Level Washington Center
09:01AM 39.4911 -78.8239 250° West 509 586 43,000  Level Washington Center
09:02AM 39.4428 -78.9964 250° West 509 586 43,000  Level Washington Center
09:03AM 39.3917 -79.1714 249° West 514 592 43,000  Level Washington Center
09:04AM 39.3494 -79.3250 250° West 514 592 43,000  Level Washington Center
09:05AM 39.3003 -79.4967 250° West 514 592 43,000  Level Washington Center
09:06AM 39.2508 -79.6711 250° West 519 597 43,000  Level Washington Center
09:07AM 39.1992 -79.8369 248° West 514 592 43,000  Level Washington Center
09:09AM 39.1125 -80.1222 249° West 511 588 43,000  Level Indianapolis Center
09:10AM 39.0619 -80.2914 249° West 508 585 43,000  Level Indianapolis Center
09:11AM 39.0111 -80.4600 249° West 506 582 43,000  Level Indianapolis Center
09:12AM 38.9503 -80.6625 249° West 504 580 43,000  Level Indianapolis Center
09:13AM 38.8992 -80.8317 249° West 508 585 43,000  Level Indianapolis Center
09:14AM 38.8478 -80.9989 249° West 505 581 43,000  Level Indianapolis Center
09:15AM 38.7961 -81.1664 248° West 505 581 43,000  Level Indianapolis Center
09:16AM 38.7444 -81.3342 248° West 506 582 43,000  Level Indianapolis Center
09:17AM 38.6922 -81.5019 248° West 509 586 43,000  Level Indianapolis Center
09:18AM 38.6300 -81.7011 248° West 514 592 43,000  Level Indianapolis Center
09:19AM 38.5789 -81.8614 248° West 520 598 43,000  Level Indianapolis Center
09:20AM 38.5258 -82.0283 248° West 511 588 43,000  Level Indianapolis Center
09:21AM 38.4722 -82.1975 248° West 512 589 43,000  Level Indianapolis Center
09:22AM 38.4075 -82.3992 248° West 513 590 43,000  Level Indianapolis Center
09:23AM 38.3522 -82.5706 248° West 510 587 43,000  Level Indianapolis Center
09:24AM 38.2975 -82.7356 247° West 508 585 43,000  Level Indianapolis Center
09:25AM 38.2422 -82.9025 247° West 512 589 43,000  Level Indianapolis Center
09:26AM 38.1883 -83.0697 248° West 512 589 43,000  Level Indianapolis Center
09:27AM 38.1319 -83.2344 247° West 511 588 43,000  Level Indianapolis Center
09:29AM 38.0697 -83.4275 248° West 508 585 43,000  Level Indianapolis Center
09:31AM 37.9569 -83.7567 247° West 507 583 43,000  Level Indianapolis Center
09:32AM 37.9017 -83.9206 247° West 506 582 43,000  Level Indianapolis Center
09:33AM 37.8447 -84.0858 246° West 511 588 43,000  Level Indianapolis Center
09:34AM 37.7789 -84.2775 247° West 511 588 43,000  Level Indianapolis Center
09:35AM 37.7219 -84.4417 246° West 511 588 43,000  Level Indianapolis Center
09:36AM 37.6658 -84.6053 247° West 512 589 43,000  Level Indianapolis Center
09:37AM 37.6086 -84.7703 246° West 513 590 43,000  Level Indianapolis Center
09:38AM 37.5497 -84.9358 246° West 516 594 43,000  Level Indianapolis Center
09:39AM 37.4828 -85.1244 246° West 509 586 43,000  Level Indianapolis Center
09:40AM 37.4247 -85.2867 246° West 508 585 43,000  Level Indianapolis Center
09:41AM 37.3667 -85.4497 246° West 509 586 43,000  Level Indianapolis Center
09:42AM 37.3136 -85.5981 246° West 509 586 43,000  Level Indianapolis Center
09:43AM 37.2447 -85.7897 246° West 511 588 43,000  Level Indianapolis Center
09:44AM 37.1858 -85.9500 245° Southwest 504 580 43,000  Level Indianapolis Center
09:45AM 37.1275 -86.1083 245° Southwest 499 574 43,000  Level Indianapolis Center
09:46AM 37.0697 -86.2683 246° West 500 575 43,000  Level Indianapolis Center
09:47AM 37.0100 -86.4269 245° Southwest 501 577 43,000  Level Indianapolis Center
09:48AM 36.9528 -86.5839 246° West 496 571 43,000  Level Indianapolis Center
09:49AM 36.8828 -86.7692 245° Southwest 502 578 43,000  Level Indianapolis Center
09:50AM 36.8236 -86.9289 245° Southwest 505 581 43,000  Level Indianapolis Center
09:51AM 36.7636 -87.0881 245° Southwest 505 581 43,000  Level Indianapolis Center
09:52AM 36.7039 -87.2467 245° Southwest 505 581 43,000  Level Indianapolis Center
09:53AM 36.6431 -87.4053 244° Southwest 505 581 43,000  Level Indianapolis Center
09:55AM 36.5639 -87.6158 245° Southwest 509 586 43,000  Level Memphis Center
09:56AM 36.5047 -87.7753 245° Southwest 509 586 43,000  Level Memphis Center
09:57AM 36.4492 -87.9139 244° Southwest 509 586 43,000  Level Memphis Center
09:58AM 36.3897 -88.0678 244° Southwest 509 586 43,000  Level Memphis Center
09:59AM 36.3236 -88.2292 243° Southwest 491 565 43,000  Level Memphis Center
10:00AM 36.2617 -88.3828 243° Southwest 500 575 43,000  Level Memphis Center
10:01AM 36.1994 -88.5386 244° Southwest 500 575 43,000  Level Memphis Center
10:02AM 36.1389 -88.6889 244° Southwest 495 570 43,000  Level Memphis Center
10:03AM 36.0783 -88.8417 244° Southwest 495 570 43,000  Level Memphis Center
10:04AM 36.0156 -88.9917 243° Southwest 495 570 43,000  Level Memphis Center
10:05AM 35.9525 -89.1492 244° Southwest 495 570 43,000  Level Memphis Center
10:06AM 35.8914 -89.3014 244° Southwest 495 570 43,000  Level Memphis Center
10:07AM 35.8300 -89.4558 244° Southwest 500 575 43,000  Level Memphis Center
10:08AM 35.7683 -89.6075 243° Southwest 500 575 43,000  Level Memphis Center
10:09AM 35.7067 -89.7614 244° Southwest 500 575 43,000  Level Memphis Center
10:10AM 35.6594 -89.8972 247° West 483 556 43,000  Level Memphis Center
10:11AM 35.5972 -90.0456 243° Southwest 494 568 43,000  Level Memphis Center
10:12AM 35.5328 -90.1989 243° Southwest 494 568 43,000  Level Memphis Center
10:13AM 35.4706 -90.3494 243° Southwest 494 568 43,000  Level Memphis Center
10:14AM 35.4078 -90.4947 242° Southwest 489 563 43,000  Level Memphis Center
10:15AM 35.3450 -90.6472 243° Southwest 496 571 43,000  Level Memphis Center
10:16AM 35.2819 -90.7972 243° Southwest 496 571 43,000  Level Memphis Center
10:17AM 35.2125 -90.9542 242° Southwest 490 564 43,000  Level Memphis Center
10:18AM 35.1492 -91.1036 243° Southwest 490 564 43,000  Level Memphis Center
10:19AM 35.0897 -91.2478 243° Southwest 495 570 43,000  Level Memphis Center
10:20AM 35.0239 -91.3942 241° Southwest 495 570 43,000  Level Memphis Center
10:21AM 34.9600 -91.5353 241° Southwest 490 564 43,000  Level Memphis Center
10:22AM 34.8939 -91.6811 241° Southwest 496 571 43,000  Level Memphis Center
10:23AM 34.8319 -91.8269 243° Southwest 491 565 43,000  Level Memphis Center
10:24AM 34.7675 -91.9700 241° Southwest 491 565 43,000  Level Memphis Center
10:25AM 34.7050 -92.1128 242° Southwest 491 565 43,000  Level Memphis Center
10:26AM 34.6550 -92.2608 248° West 486 559 43,000  Level Memphis Center
10:27AM 34.6128 -92.4164 252° West 486 559 43,000  Level Memphis Center
10:28AM 34.5725 -92.5717 253° West 486 559 43,000  Level Memphis Center
10:29AM 34.5300 -92.7269 252° West 486 559 43,000  Level Memphis Center
10:30AM 34.4917 -92.8769 253° West 486 559 43,000  Level Memphis Center
10:31AM 34.4531 -93.0294 253° West 481 554 43,000  Level Memphis Center
10:32AM 34.4100 -93.1817 251° West 476 548 43,000  Level Memphis Center
10:33AM 34.3669 -93.3339 251° West 481 554 43,000  Level Memphis Center
10:34AM 34.3253 -93.4933 252° West 486 559 43,000  Level Memphis Center
10:35AM 34.2747 -93.6914 253° West 477 549 43,000  Level Fort Worth Center
10:36AM 34.2311 -93.8442 251° West 482 555 43,000  Level Fort Worth Center
10:37AM 34.1894 -93.9964 252° West 488 562 43,000  Level Fort Worth Center
10:38AM 34.1458 -94.1589 252° West 493 567 43,000  Level Fort Worth Center
10:39AM 34.1017 -94.3133 251° West 493 567 43,000 -420 Level Fort Worth Center
10:40AM 34.0594 -94.4678 252° West 493 567 42,200 -1,200 Descending Fort Worth Center
10:41AM 34.0169 -94.6119 250° West 483 556 40,600 -1,800 Descending Fort Worth Center
10:42AM 33.9761 -94.7536 251° West 471 542 38,600 -2,700 Descending Fort Worth Center
10:43AM 33.9331 -94.8900 249° West 449 517 35,300 -3,120 Descending Fort Worth Center
10:44AM 33.8942 -95.0339 252° West 449 517 32,400 -2,580 Descending Fort Worth Center
10:45AM 33.8489 -95.1803 250° West 454 522 30,200 -2,280 Descending Fort Worth Center
10:46AM 33.8036 -95.3339 251° West 465 535 27,900 -2,340 Descending Fort Worth Center
10:47AM 33.7619 -95.4847 252° West 478 550 25,600 -2,340 Descending Fort Worth Center
10:48AM 33.7122 -95.6356 248° West 467 537 23,300 -2,340 Descending Fort Worth Center
10:49AM 33.6575 -95.7714 244° Southwest 454 522 21,000 -2,340 Descending Fort Worth Center
10:50AM 33.6069 -95.8994 245° Southwest 441 507 18,700 -2,220 Descending Fort Worth Center
10:51AM 33.5564 -96.0200 243° Southwest 421 484 16,600 -2,100 Descending Fort Worth Center
10:52AM 33.5114 -96.1253 243° Southwest 407 468 14,600 -1,980 Descending Fort Worth Center
10:53AM 33.4644 -96.2406 244° Southwest 369 425 12,700 -1,560 Descending Fort Worth Center
10:54AM 33.4319 -96.3208 244° Southwest 329 379 11,500 -900 Descending Fort Worth Center
10:55AM 33.3908 -96.4108 241° Southwest 295 339 11,000 -1,200 Descending Fort Worth Center
10:56AM 33.3350 -96.4761 224° Southwest 280 322 9,100 -1,800 Descending Fort Worth Center
10:57AM 33.2833 -96.5333 223° Southwest 279 321 7,500 -1,680 Descending Dallas / Fort Worth TRACON
10:58AM 33.2500 -96.6333 248° West 280 322 5,700 -1,200 Descending Dallas / Fort Worth TRACON
10:59AM 33.2500 -96.7167 270° West 265 305 5,000 -420 Descending Dallas / Fort Worth TRACON
11:00AM 33.2347 -96.8000 258° West 272 313 5,000  Level Fort Worth Center
11:01AM 33.2183 -96.8794 256° West 277 319 5,000  Level Fort Worth Center
11:02AM 33.2042 -96.9764 260° West 277 319 5,000  Level Fort Worth Center
11:03AM 33.1647 -97.0189 222° Southwest 232 267 5,000 -420 Level Fort Worth Center
11:04AM 33.1167 -97.0167 178° South 191 220 4,200 -900 Descending Dallas / Fort Worth TRACON
11:05AM 33.0667 -97.0167 180° South 164 189 3,300 -900 Descending Dallas / Fort Worth TRACON
11:06AM 33.0167 -97.0167 180° South 174 200 2,400 -900 Descending Dallas / Fort Worth TRACON
11:07AM 32.9667 -97.0167 180° South 153 176 1,600 -780 Descending Dallas / Fort Worth TRACON
11:08AM 32.9333 -97.0167 180° South 128 147 900 -720 Descending Dallas / Fort Worth TRACON
11:10AM 32.8968 -97.0380 232° Southwest  Level Estimated
11:17AM 32.8968 -97.0380 232° Southwest  Level Estimated